Terminal Aerodrome Forecast
Issued by NWS

Home | Current Version | Previous Version | Text Only | Print | Product List | Glossary On
Versions: 1 2 3 4 5 6 7 8 9 10 11 12 13 14 15 16 17 18 19 20 21 22 23 24 25 26 27 28 29 30 31 32 33 34 35 36
000
FTUS43 KLOT 240546
TAFORD
TAF
KORD 240546Z 2406/2512 14011KT P6SM -SHRA VCTS FEW080CB BKN120
      OVC250
     FM240700 18008KT P6SM SCT030 BKN250
     FM241300 21012G19KT P6SM SCT040
     FM242100 24012G19KT P6SM VCTS BKN040CB
     FM250200 26008KT P6SM SCT040 BKN250
     FM250600 30008KT P6SM SCT200=

USA.gov is the U.S. government's official web portal to all federal, state and local government web resources and services.